Time;durP1;ratioP1;P1;durP2;ratioP2;P2;SDS_P1;SDS_P2;PMS_P1;PMS_P2;Temp;Humidity;BMP_temperature;BMP_pressure;BME280_temperature;BME280_humidity;BME280_pressure;Samples;Min_cycle;Max_cycle;Signal;HPM_P1;HPM_P2
2022/10/27 00:00:48;;;;;;;7.03;3.37;;;;;;;-141.59;100.00;61776.25;5039341;28;20191;-87
2022/10/27 00:03:17;;;;;;;9.63;2.17;;;;;;;-141.59;100.00;61776.25;5057040;28;20301;-86
2022/10/27 00:05:44;;;;;;;3.47;2.20;;;;;;;-141.59;100.00;61776.25;5051857;28;20241;-88
2022/10/27 00:08:14;;;;;;;7.43;2.00;;;;;;;-141.59;100.00;61776.25;5044614;28;20238;-87
2022/10/27 00:10:43;;;;;;;7.53;2.50;;;;;;;-141.59;100.00;61776.25;5042440;28;20241;-84
2022/10/27 00:13:11;;;;;;;11.33;2.10;;;;;;;-141.59;100.00;61776.25;5031887;28;20226;-85
2022/10/27 00:15:38;;;;;;;4.07;2.20;;;;;;;-141.59;100.00;61776.25;5031244;28;20413;-83
2022/10/27 00:18:12;;;;;;;6.67;2.30;;;;;;;-141.59;100.00;61776.25;5038587;28;20198;-86
2022/10/27 00:20:39;;;;;;;6.83;2.47;;;;;;;-141.59;100.00;61776.25;5041170;28;20248;-86
2022/10/27 00:23:06;;;;;;;5.90;2.30;;;;;;;-141.59;100.00;61776.25;5034463;28;20248;-88
2022/10/27 00:25:33;;;;;;;6.67;2.53;;;;;;;-141.59;100.00;61776.25;5040018;28;20334;-88
2022/10/27 00:28:00;;;;;;;3.47;2.00;;;;;;;-141.59;100.00;61776.25;5053747;28;20206;-86
2022/10/27 00:30:27;;;;;;;7.40;2.30;;;;;;;-141.59;100.00;61776.25;5052991;28;20225;-88
2022/10/27 00:32:54;;;;;;;8.50;2.73;;;;;;;-141.59;100.00;61776.25;5064857;28;20204;-85
2022/10/27 00:35:23;;;;;;;3.83;1.97;;;;;;;-141.59;100.00;61776.25;5058643;28;20203;-86
2022/10/27 00:37:50;;;;;;;7.07;2.47;;;;;;;-141.59;100.00;61776.25;5044593;28;20195;-87
2022/10/27 00:40:17;;;;;;;5.43;1.97;;;;;;;-141.59;100.00;61776.25;5051075;28;20224;-88
2022/10/27 00:42:45;;;;;;;4.60;2.30;;;;;;;-141.59;100.00;61776.25;5058140;28;20195;-86
2022/10/27 00:45:12;;;;;;;3.47;2.23;;;;;;;-141.59;100.00;61776.25;5050536;28;20241;-88
2022/10/27 00:47:39;;;;;;;4.97;2.27;;;;;;;-141.59;100.00;61776.25;5038405;28;20199;-87
2022/10/27 00:50:10;;;;;;;6.33;2.60;;;;;;;-141.59;100.00;61776.25;5051150;28;20214;-85
2022/10/27 00:52:43;;;;;;;10.50;2.40;;;;;;;-141.59;100.00;61776.25;5052467;28;20209;-88
2022/10/27 00:55:15;;;;;;;5.97;2.67;;;;;;;-141.59;100.00;61776.25;5037463;28;20214;-87
2022/10/27 00:57:45;;;;;;;4.93;2.50;;;;;;;-141.59;100.00;61776.25;5051055;28;20194;-82
2022/10/27 01:00:14;;;;;;;5.33;2.53;;;;;;;-141.59;100.00;61776.25;5042430;28;20194;-85
2022/10/27 01:02:41;;;;;;;16.63;2.70;;;;;;;-141.59;100.00;61776.25;5057882;28;20199;-87
2022/10/27 01:05:15;;;;;;;6.53;2.20;;;;;;;-141.59;100.00;61776.25;5058462;28;20273;-87
2022/10/27 01:07:44;;;;;;;8.20;2.33;;;;;;;-141.59;100.00;61776.25;5036976;28;20202;-88
2022/10/27 01:10:12;;;;;;;7.87;2.30;;;;;;;-141.59;100.00;61776.25;5036036;28;20298;-87
2022/10/27 01:12:40;;;;;;;3.37;2.00;;;;;;;-141.59;100.00;61776.25;5036542;28;20322;-87
2022/10/27 01:15:09;;;;;;;6.20;2.23;;;;;;;-141.59;100.00;61776.25;5049242;28;20205;-87
2022/10/27 01:17:45;;;;;;;2.63;1.90;;;;;;;-141.59;100.00;61776.25;5042227;28;20203;-87
2022/10/27 01:20:48;;;;;;;10.93;2.20;;;;;;;-141.59;100.00;61776.25;5042752;28;20233;-87
2022/10/27 01:23:29;;;;;;;7.97;2.40;;;;;;;-141.59;100.00;61776.25;5042976;28;20209;-87
2022/10/27 01:26:30;;;;;;;5.67;2.50;;;;;;;-141.59;100.00;61776.25;5039443;28;20217;-87
2022/10/27 01:29:46;;;;;;;3.87;2.20;;;;;;;-141.59;100.00;61776.25;5044324;28;20215;-87
2022/10/27 01:32:30;;;;;;;3.97;2.10;;;;;;;-141.59;100.00;61776.25;5001124;28;20232;-88
2022/10/27 01:35:07;;;;;;;5.97;2.43;;;;;;;-141.59;100.00;61776.25;5040769;28;20203;-84
2022/10/27 01:37:40;;;;;;;7.10;1.83;;;;;;;-141.59;100.00;61776.25;5035404;28;20560;-86
2022/10/27 01:40:17;;;;;;;7.13;2.43;;;;;;;-141.59;100.00;61776.25;5040709;28;20276;-86
2022/10/27 01:42:49;;;;;;;4.03;2.03;;;;;;;-141.59;100.00;61776.25;5046844;28;20265;-82
2022/10/27 01:45:21;;;;;;;6.93;2.17;;;;;;;-141.59;100.00;61776.25;5050745;28;20341;-88
2022/10/27 01:47:50;;;;;;;6.00;2.30;;;;;;;-141.59;100.00;61776.25;5044920;28;20202;-86
2022/10/27 01:50:20;;;;;;;5.03;1.93;;;;;;;-141.59;100.00;61776.25;5040204;28;20210;-83
2022/10/27 01:52:49;;;;;;;3.00;1.77;;;;;;;-141.59;100.00;61776.25;5045826;28;20271;-87
2022/10/27 01:55:20;;;;;;;6.07;1.80;;;;;;;-141.59;100.00;61776.25;5045068;28;20210;-86
2022/10/27 01:58:43;;;;;;;6.03;2.13;;;;;;;-141.59;100.00;61776.25;5046156;28;20217;-88
2022/10/27 02:01:28;;;;;;;6.33;2.30;;;;;;;-141.59;100.00;61776.25;5035408;28;20209;-85
2022/10/27 02:04:02;;;;;;;5.20;2.10;;;;;;;-141.59;100.00;61776.25;5038288;28;20207;-88
2022/10/27 02:06:36;;;;;;;4.20;2.10;;;;;;;-141.59;100.00;61776.25;5034174;28;20273;-88
2022/10/27 02:09:11;;;;;;;7.30;2.10;;;;;;;-141.59;100.00;61776.25;5043907;28;20304;-86
2022/10/27 02:11:42;;;;;;;5.67;1.90;;;;;;;-141.59;100.00;61776.25;5039334;28;20244;-86
2022/10/27 02:14:11;;;;;;;7.10;2.13;;;;;;;-141.59;100.00;61776.25;5035862;28;20272;-88
2022/10/27 02:16:43;;;;;;;9.57;2.33;;;;;;;-141.59;100.00;61776.25;5037888;28;20208;-87
2022/10/27 02:19:19;;;;;;;6.27;2.40;;;;;;;-141.59;100.00;61776.25;5037704;28;20203;-86
2022/10/27 02:21:50;;;;;;;6.70;2.40;;;;;;;-141.59;100.00;61776.25;5043013;28;20198;-82
2022/10/27 02:24:18;;;;;;;10.00;2.00;;;;;;;-141.59;100.00;61776.25;5043598;28;20209;-88
2022/10/27 02:26:50;;;;;;;5.90;2.10;;;;;;;-141.59;100.00;61776.25;5051919;28;20203;-85
2022/10/27 02:29:22;;;;;;;4.90;2.20;;;;;;;-141.59;100.00;61776.25;5037223;28;20253;-87
2022/10/27 02:31:52;;;;;;;5.30;2.30;;;;;;;-141.59;100.00;61776.25;5064338;28;20234;-86
2022/10/27 02:34:23;;;;;;;8.23;2.60;;;;;;;-141.59;100.00;61776.25;5039924;28;20281;-86
2022/10/27 02:36:51;;;;;;;6.63;2.40;;;;;;;-141.59;100.00;61776.25;5034169;28;20202;-87
2022/10/27 02:39:18;;;;;;;3.70;2.27;;;;;;;-141.59;100.00;61776.25;5049316;28;20206;-88
2022/10/27 02:41:45;;;;;;;4.87;2.47;;;;;;;-141.59;100.00;61776.25;5038195;28;20203;-85
2022/10/27 02:44:12;;;;;;;4.43;2.20;;;;;;;-141.59;100.00;61776.25;5055316;28;20285;-87
2022/10/27 02:46:39;;;;;;;3.27;2.10;;;;;;;-141.59;100.00;61776.25;5047173;28;20222;-85
2022/10/27 02:49:09;;;;;;;5.50;2.70;;;;;;;-141.59;100.00;61776.25;5049523;28;20203;-88
2022/10/27 02:51:37;;;;;;;5.37;2.67;;;;;;;-141.59;100.00;61776.25;5045184;28;20289;-87
2022/10/27 02:54:04;;;;;;;6.03;1.80;;;;;;;-141.59;100.00;61776.25;5036322;28;20207;-85
2022/10/27 02:56:31;;;;;;;4.37;2.43;;;;;;;-141.59;100.00;61776.25;5041766;28;20206;-86
2022/10/27 02:58:58;;;;;;;5.87;2.27;;;;;;;-141.59;100.00;61776.25;5034154;28;20292;-85
2022/10/27 03:01:26;;;;;;;9.50;2.67;;;;;;;-141.59;100.00;61776.25;5030915;28;20238;-86
2022/10/27 03:03:53;;;;;;;3.53;1.90;;;;;;;-141.59;100.00;61776.25;5040565;28;20198;-86
2022/10/27 03:06:19;;;;;;;8.97;2.37;;;;;;;-141.59;100.00;61776.25;5049795;28;20245;-87
2022/10/27 03:08:48;;;;;;;6.83;2.10;;;;;;;-141.59;100.00;61776.25;5050724;28;20206;-86
2022/10/27 03:11:15;;;;;;;3.47;2.20;;;;;;;-141.59;100.00;61776.25;5037459;28;20227;-88
2022/10/27 03:13:42;;;;;;;4.00;1.63;;;;;;;-141.59;100.00;61776.25;5039362;28;20235;-87
2022/10/27 03:16:09;;;;;;;9.57;1.90;;;;;;;-141.59;100.00;61776.25;5032168;28;20202;-85
2022/10/27 03:18:36;;;;;;;5.27;1.97;;;;;;;-141.59;100.00;61776.25;5038776;28;20202;-87
2022/10/27 03:21:03;;;;;;;9.47;2.13;;;;;;;-141.59;100.00;61776.25;5040119;28;20214;-88
2022/10/27 03:23:30;;;;;;;4.87;2.00;;;;;;;-141.59;100.00;61776.25;5045547;28;20210;-87
2022/10/27 03:25:59;;;;;;;8.00;2.30;;;;;;;-141.59;100.00;61776.25;5032440;28;20202;-88
2022/10/27 03:28:29;;;;;;;8.07;2.17;;;;;;;-141.59;100.00;61776.25;5042153;28;20198;-86
2022/10/27 03:30:56;;;;;;;10.37;2.43;;;;;;;-141.59;100.00;61776.25;5045097;28;20194;-85
2022/10/27 03:33:23;;;;;;;11.20;2.60;;;;;;;-141.59;100.00;61776.25;5040809;28;20198;-86
2022/10/27 03:35:50;;;;;;;5.47;2.40;;;;;;;-141.59;100.00;61776.25;5040301;28;20210;-85
2022/10/27 03:38:17;;;;;;;5.27;2.37;;;;;;;-141.59;100.00;61776.25;5043823;28;20199;-86
2022/10/27 03:40:44;;;;;;;7.77;2.77;;;;;;;-141.59;100.00;61776.25;5036354;28;20221;-86
2022/10/27 03:43:12;;;;;;;4.33;2.33;;;;;;;-141.59;100.00;61776.25;5045035;28;20198;-86
2022/10/27 03:45:39;;;;;;;4.27;2.40;;;;;;;-141.59;100.00;61776.25;5046194;28;20225;-87
2022/10/27 03:48:10;;;;;;;4.40;2.10;;;;;;;-141.59;100.00;61776.25;5036517;28;20199;-87
2022/10/27 03:50:37;;;;;;;12.00;4.73;;;;;;;-141.59;100.00;61776.25;5041514;28;20201;-90
2022/10/27 03:53:05;;;;;;;6.20;3.67;;;;;;;-141.59;100.00;61776.25;5059962;28;20215;-86
2022/10/27 03:55:33;;;;;;;5.40;3.60;;;;;;;-141.59;100.00;61776.25;5034511;28;20205;-87
2022/10/27 03:58:00;;;;;;;10.13;3.30;;;;;;;-141.59;100.00;61776.25;5044383;28;20199;-82
2022/10/27 04:00:30;;;;;;;6.17;2.87;;;;;;;-141.59;100.00;61776.25;5044908;28;20222;-86
2022/10/27 04:02:57;;;;;;;5.13;2.63;;;;;;;-141.59;100.00;61776.25;5035901;28;20203;-87
2022/10/27 04:05:25;;;;;;;11.50;5.20;;;;;;;-141.59;100.00;61776.25;5041228;28;20282;-87
2022/10/27 04:07:52;;;;;;;13.57;5.13;;;;;;;-141.59;100.00;61776.25;5044549;28;20195;-85
2022/10/27 04:10:20;;;;;;;7.47;4.20;;;;;;;-141.59;100.00;61776.25;5040610;28;20225;-87
2022/10/27 04:12:51;;;;;;;4.90;2.10;;;;;;;-141.59;100.00;61776.25;5036354;28;20241;-87
2022/10/27 04:15:20;;;;;;;7.70;2.97;;;;;;;-141.59;100.00;61776.25;5043534;28;20216;-87
2022/10/27 04:17:49;;;;;;;5.63;2.63;;;;;;;-141.59;100.00;61776.25;5041188;28;20211;-88
2022/10/27 04:20:16;;;;;;;5.17;2.90;;;;;;;-141.59;100.00;61776.25;5037651;28;20269;-86
2022/10/27 04:22:43;;;;;;;6.57;2.70;;;;;;;-141.59;100.00;61776.25;5061229;28;20209;-87
2022/10/27 04:25:10;;;;;;;5.43;2.80;;;;;;;-141.59;100.00;61776.25;5049293;28;20206;-88
2022/10/27 04:27:37;;;;;;;10.63;2.77;;;;;;;-141.59;100.00;61776.25;5049985;28;20210;-86
2022/10/27 04:30:05;;;;;;;4.23;2.30;;;;;;;-141.59;100.00;61776.25;5041335;28;20264;-85
2022/10/27 04:32:32;;;;;;;7.27;2.20;;;;;;;-141.59;100.00;61776.25;5056535;28;20214;-88
2022/10/27 04:35:00;;;;;;;6.57;3.00;;;;;;;-141.59;100.00;61776.25;5040888;28;20203;-86
2022/10/27 04:37:27;;;;;;;7.27;3.33;;;;;;;-141.59;100.00;61776.25;5048467;28;20206;-89
2022/10/27 04:39:54;;;;;;;6.03;3.60;;;;;;;-141.59;100.00;61776.25;5052159;28;20244;-86
2022/10/27 04:42:21;;;;;;;5.73;3.00;;;;;;;-141.59;100.00;61776.25;5042500;28;20203;-86
2022/10/27 04:44:49;;;;;;;8.90;2.97;;;;;;;-141.59;100.00;61776.25;5036973;28;20213;-88
2022/10/27 04:47:15;;;;;;;7.63;3.60;;;;;;;-141.59;100.00;61776.25;5038149;28;20202;-87
2022/10/27 04:49:43;;;;;;;10.07;3.20;;;;;;;-141.59;100.00;61776.25;5046468;28;20245;-86
2022/10/27 04:52:11;;;;;;;7.93;2.97;;;;;;;-141.59;100.00;61776.25;5046523;28;20245;-85
2022/10/27 04:54:38;;;;;;;5.60;2.40;;;;;;;-141.59;100.00;61776.25;5042848;28;20253;-83
2022/10/27 04:57:05;;;;;;;4.57;2.37;;;;;;;-141.59;100.00;61776.25;5037854;28;20213;-88
2022/10/27 04:59:32;;;;;;;8.13;2.77;;;;;;;-141.59;100.00;61776.25;5052174;28;20290;-89
2022/10/27 05:01:59;;;;;;;7.27;2.93;;;;;;;-141.59;100.00;61776.25;5046855;28;20206;-88
2022/10/27 05:04:26;;;;;;;3.77;2.03;;;;;;;-141.59;100.00;61776.25;5048392;28;20265;-87
2022/10/27 05:06:53;;;;;;;7.50;2.83;;;;;;;-141.59;100.00;61776.25;5049666;28;20517;-88
2022/10/27 05:09:22;;;;;;;4.87;2.53;;;;;;;-141.59;100.00;61776.25;5039109;28;20202;-87
2022/10/27 05:11:48;;;;;;;13.17;3.07;;;;;;;-141.59;100.00;61776.25;5062190;28;20225;-85
2022/10/27 05:14:16;;;;;;;7.13;4.00;;;;;;;-141.59;100.00;61776.25;5036112;28;20231;-89
2022/10/27 05:16:43;;;;;;;5.30;2.10;;;;;;;-141.59;100.00;61776.25;5055909;28;20205;-85
2022/10/27 05:19:10;;;;;;;4.40;2.00;;;;;;;-141.59;100.00;61776.25;5051249;28;20201;-89
2022/10/27 05:21:37;;;;;;;8.67;1.93;;;;;;;-141.59;100.00;61776.25;5035034;28;20203;-87
2022/10/27 05:24:05;;;;;;;6.00;2.97;;;;;;;-141.59;100.00;61776.25;5043876;28;20297;-86
2022/10/27 05:26:33;;;;;;;8.20;3.10;;;;;;;-141.59;100.00;61776.25;5046586;28;20206;-86
2022/10/27 05:29:00;;;;;;;7.83;3.23;;;;;;;-141.59;100.00;61776.25;5049430;28;20199;-88
2022/10/27 05:31:27;;;;;;;5.97;3.37;;;;;;;-141.59;100.00;61776.25;5051688;28;20297;-85
2022/10/27 05:33:54;;;;;;;5.97;3.37;;;;;;;-141.59;100.00;61776.25;5047249;28;20226;-87
2022/10/27 05:36:21;;;;;;;5.33;2.90;;;;;;;-141.59;100.00;61776.25;5042953;28;20203;-86
2022/10/27 05:38:49;;;;;;;5.60;3.70;;;;;;;-141.59;100.00;61776.25;5054170;28;20217;-88
2022/10/27 05:41:17;;;;;;;5.13;2.87;;;;;;;-141.59;100.00;61776.25;5048018;28;20202;-87
2022/10/27 05:43:46;;;;;;;11.60;4.67;;;;;;;-141.59;100.00;61776.25;5042633;28;20237;-84
2022/10/27 05:46:13;;;;;;;5.43;2.60;;;;;;;-141.59;100.00;61776.25;5055186;28;20198;-87
2022/10/27 05:48:40;;;;;;;5.63;2.97;;;;;;;-141.59;100.00;61776.25;5044672;28;20259;-85
2022/10/27 05:51:07;;;;;;;6.00;2.97;;;;;;;-141.59;100.00;61776.25;5055424;28;20206;-85
2022/10/27 05:53:34;;;;;;;7.67;3.47;;;;;;;-141.59;100.00;61776.25;5051664;28;20222;-86
2022/10/27 05:56:01;;;;;;;4.80;3.30;;;;;;;-141.59;100.00;61776.25;5052612;28;20203;-87
2022/10/27 05:58:28;;;;;;;7.60;2.67;;;;;;;-141.59;100.00;61776.25;5033282;28;20190;-86
2022/10/27 06:00:59;;;;;;;5.97;3.50;;;;;;;-141.59;100.00;61776.25;5051559;28;20204;-84
2022/10/27 06:03:26;;;;;;;11.53;3.03;;;;;;;-141.59;100.00;61776.25;5050329;28;20203;-86
2022/10/27 06:05:54;;;;;;;10.57;3.17;;;;;;;-141.59;100.00;61776.25;5040385;28;20206;-86
2022/10/27 06:08:23;;;;;;;7.03;2.50;;;;;;;-141.59;100.00;61776.25;5054258;28;20248;-87
2022/10/27 06:10:50;;;;;;;7.20;3.73;;;;;;;-141.59;100.00;61776.25;5039514;28;20226;-85
2022/10/27 06:13:17;;;;;;;4.90;2.60;;;;;;;-141.59;100.00;61776.25;5034065;28;20266;-86
2022/10/27 06:15:44;;;;;;;9.03;3.73;;;;;;;-141.59;100.00;61776.25;5049992;28;20201;-86
2022/10/27 06:18:13;;;;;;;5.23;3.07;;;;;;;-141.59;100.00;61776.25;5035194;28;20206;-87
2022/10/27 06:20:41;;;;;;;6.57;2.77;;;;;;;-141.59;100.00;61776.25;5037424;28;20217;-86
2022/10/27 06:23:08;;;;;;;8.40;3.70;;;;;;;-141.59;100.00;61776.25;5049785;28;20211;-86
2022/10/27 06:25:35;;;;;;;12.37;3.97;;;;;;;-141.59;100.00;61776.25;5043445;28;20209;-87
2022/10/27 06:28:02;;;;;;;7.87;5.77;;;;;;;-141.59;100.00;61776.25;5052583;28;20214;-85
2022/10/27 06:30:29;;;;;;;12.93;6.57;;;;;;;-141.59;100.00;61776.25;5054762;28;20210;-87
2022/10/27 06:32:57;;;;;;;11.17;6.50;;;;;;;-141.59;100.00;61776.25;5036124;28;20250;-86
2022/10/27 06:35:25;;;;;;;11.37;6.57;;;;;;;-141.59;100.00;61776.25;5048066;28;20203;-84
2022/10/27 06:37:52;;;;;;;13.10;6.83;;;;;;;-141.59;100.00;61776.25;5037861;28;20183;-84
2022/10/27 06:40:20;;;;;;;10.23;7.30;;;;;;;-141.59;100.00;61776.25;5057034;28;20208;-86
2022/10/27 06:42:49;;;;;;;9.60;6.10;;;;;;;-141.59;100.00;61776.25;5047128;28;20284;-87
2022/10/27 06:45:17;;;;;;;10.23;6.37;;;;;;;-141.59;100.00;61776.25;5040896;28;20225;-84
2022/10/27 06:47:44;;;;;;;10.53;6.27;;;;;;;-141.59;100.00;61776.25;5034956;28;20306;-86
2022/10/27 06:50:11;;;;;;;12.57;5.10;;;;;;;-141.59;100.00;61776.25;5046365;28;20213;-88
2022/10/27 06:52:40;;;;;;;10.23;5.40;;;;;;;-141.59;100.00;61776.25;5047777;28;20230;-88
2022/10/27 06:55:08;;;;;;;7.43;6.03;;;;;;;-141.59;100.00;61776.25;5035834;28;20268;-88
2022/10/27 06:57:42;;;;;;;10.80;6.03;;;;;;;-141.59;100.00;61776.25;5038420;28;20206;-87
2022/10/27 07:00:10;;;;;;;9.40;6.30;;;;;;;-141.59;100.00;61776.25;5043430;28;20207;-87
2022/10/27 07:02:37;;;;;;;9.10;5.63;;;;;;;-141.59;100.00;61776.25;5059868;28;20221;-87
2022/10/27 07:05:06;;;;;;;9.13;5.63;;;;;;;-141.59;100.00;61776.25;5063293;28;20214;-83
2022/10/27 07:07:33;;;;;;;8.47;4.90;;;;;;;-141.59;100.00;61776.25;5033231;28;20199;-86
2022/10/27 07:10:02;;;;;;;7.93;4.90;;;;;;;-141.59;100.00;61776.25;5035332;28;20222;-83
2022/10/27 07:12:29;;;;;;;10.63;4.80;;;;;;;-141.59;100.00;61776.25;5042467;28;20234;-85
2022/10/27 07:14:56;;;;;;;6.03;4.40;;;;;;;-141.59;100.00;61776.25;5036756;28;20210;-83
2022/10/27 07:17:23;;;;;;;6.97;4.53;;;;;;;-141.59;100.00;61776.25;5048947;28;20198;-85
2022/10/27 07:19:50;;;;;;;8.47;4.63;;;;;;;-141.59;100.00;61776.25;5035758;28;20214;-85
2022/10/27 07:22:17;;;;;;;7.90;4.87;;;;;;;-141.59;100.00;61776.25;5048559;28;20208;-87
2022/10/27 07:24:45;;;;;;;9.57;4.93;;;;;;;-141.59;100.00;61776.25;5050508;28;20217;-86
2022/10/27 07:27:14;;;;;;;11.10;5.07;;;;;;;-141.59;100.00;61776.25;5034802;28;20199;-86
2022/10/27 07:29:41;;;;;;;9.23;4.03;;;;;;;-141.59;100.00;61776.25;5034130;28;20198;-84
2022/10/27 07:32:08;;;;;;;5.63;4.00;;;;;;;-141.59;100.00;61776.25;5033244;28;20209;-83
2022/10/27 07:34:35;;;;;;;8.70;3.90;;;;;;;-141.59;100.00;61776.25;5037177;28;20237;-87
2022/10/27 07:37:02;;;;;;;12.30;4.37;;;;;;;-141.59;100.00;61776.25;5048508;28;20209;-82
2022/10/27 07:39:29;;;;;;;8.77;4.47;;;;;;;-141.59;100.00;61776.25;5049025;28;20207;-86
2022/10/27 07:41:56;;;;;;;9.73;5.13;;;;;;;-141.59;100.00;61776.25;5039985;28;20206;-84
2022/10/27 07:44:25;;;;;;;7.63;4.50;;;;;;;-141.59;100.00;61776.25;5047584;28;20213;-85
2022/10/27 07:46:53;;;;;;;9.93;4.00;;;;;;;-141.59;100.00;61776.25;5047463;28;20206;-83
2022/10/27 07:49:20;;;;;;;6.73;3.87;;;;;;;-141.59;100.00;61776.25;5048218;28;20300;-85
2022/10/27 07:51:47;;;;;;;14.50;3.40;;;;;;;-141.59;100.00;61776.25;5037304;28;20224;-86
2022/10/27 07:54:15;;;;;;;7.30;3.50;;;;;;;-141.59;100.00;61776.25;5050123;28;20222;-84
2022/10/27 07:56:42;;;;;;;7.27;3.53;;;;;;;-141.59;100.00;61776.25;5042887;28;20297;-85
2022/10/27 07:59:09;;;;;;;10.20;4.00;;;;;;;-141.59;100.00;61776.25;5040514;28;20255;-85
2022/10/27 08:01:37;;;;;;;6.70;3.60;;;;;;;-141.59;100.00;61776.25;5044986;28;20209;-85
2022/10/27 08:04:07;;;;;;;6.63;3.37;;;;;;;-141.59;100.00;61776.25;5045245;28;20245;-85
2022/10/27 08:06:34;;;;;;;22.77;7.77;;;;;;;-141.59;100.00;61776.25;5040297;28;20206;-86
2022/10/27 08:09:01;;;;;;;12.20;4.33;;;;;;;-141.59;100.00;61776.25;5066763;28;20222;-82
2022/10/27 08:11:28;;;;;;;8.53;4.70;;;;;;;-141.59;100.00;61776.25;5042050;28;20227;-87
2022/10/27 08:13:56;;;;;;;7.23;3.37;;;;;;;-141.59;100.00;61776.25;5052203;28;20270;-86
2022/10/27 08:16:23;;;;;;;13.87;4.00;;;;;;;-141.59;100.00;61776.25;5049375;28;20209;-85
2022/10/27 08:18:51;;;;;;;9.17;3.70;;;;;;;-141.59;100.00;61776.25;5055604;28;20218;-83
2022/10/27 08:21:18;;;;;;;7.03;3.00;;;;;;;-141.59;100.00;61776.25;5041170;28;20226;-86
2022/10/27 08:23:45;;;;;;;8.53;2.97;;;;;;;-141.59;100.00;61776.25;5042743;28;20210;-87
2022/10/27 08:26:12;;;;;;;10.90;2.63;;;;;;;-141.59;100.00;61776.25;5045051;28;20205;-86
2022/10/27 08:28:39;;;;;;;4.07;2.20;;;;;;;-141.59;100.00;61776.25;5049847;28;20280;-86
2022/10/27 08:31:07;;;;;;;4.23;2.03;;;;;;;-141.59;100.00;61776.25;5039908;28;20201;-86
2022/10/27 08:33:34;;;;;;;37.80;4.80;;;;;;;-141.59;100.00;61776.25;5040340;28;20273;-84
2022/10/27 08:36:02;;;;;;;19.20;2.93;;;;;;;-141.59;100.00;61776.25;5038869;28;20198;-87
2022/10/27 08:38:31;;;;;;;14.77;2.57;;;;;;;-141.59;100.00;61776.25;5033202;28;20310;-86
2022/10/27 08:41:10;;;;;;;7.87;2.40;;;;;;;-141.59;100.00;61776.25;5042489;28;20225;-87
2022/10/27 08:43:51;;;;;;;17.10;3.63;;;;;;;-141.59;100.00;61776.25;5039382;28;20211;-85
2022/10/27 08:46:25;;;;;;;6.20;2.23;;;;;;;-141.59;100.00;61776.25;5035188;28;20229;-87
2022/10/27 08:48:55;;;;;;;7.80;2.70;;;;;;;-141.59;100.00;61776.25;5033369;28;20233;-85
2022/10/27 08:51:26;;;;;;;6.57;2.20;;;;;;;-141.59;100.00;61776.25;5038573;28;20219;-81
2022/10/27 08:53:54;;;;;;;6.47;2.97;;;;;;;-141.59;100.00;61776.25;5050741;28;20229;-86
2022/10/27 08:56:23;;;;;;;7.27;2.90;;;;;;;-141.59;100.00;61776.25;5042977;28;20202;-83
2022/10/27 08:58:50;;;;;;;10.37;2.40;;;;;;;-141.59;100.00;61776.25;5050313;28;20258;-86
2022/10/27 09:01:30;;;;;;;6.37;2.43;;;;;;;-141.59;100.00;61776.25;5059397;28;20194;-84
2022/10/27 09:04:23;;;;;;;12.53;3.60;;;;;;;-141.59;100.00;61776.25;5041411;28;20234;-87
2022/10/27 09:07:06;;;;;;;8.73;2.57;;;;;;;-141.59;100.00;61776.25;5050896;28;20206;-87
2022/10/27 09:09:41;;;;;;;9.00;2.80;;;;;;;-141.59;100.00;61776.25;5048773;28;20288;-84
2022/10/27 09:12:17;;;;;;;11.50;3.20;;;;;;;-141.59;100.00;61776.25;5049554;28;20301;-86
2022/10/27 09:15:03;;;;;;;11.37;3.00;;;;;;;-141.59;100.00;61776.25;5064907;28;20223;-86
2022/10/27 09:17:36;;;;;;;3.73;2.20;;;;;;;-141.59;100.00;61776.25;5043222;28;20478;-85
2022/10/27 09:20:09;;;;;;;5.13;2.60;;;;;;;-141.59;100.00;61776.25;5040316;28;20220;-87
2022/10/27 09:22:42;;;;;;;10.97;3.17;;;;;;;-141.59;100.00;61776.25;5044492;28;20222;-84
2022/10/27 09:25:17;;;;;;;8.47;2.90;;;;;;;-141.59;100.00;61776.25;5054024;28;20203;-81
2022/10/27 09:27:47;;;;;;;8.70;3.13;;;;;;;-141.59;100.00;61776.25;5044835;28;20233;-85
2022/10/27 09:30:15;;;;;;;6.10;2.20;;;;;;;-141.59;100.00;61776.25;5041239;28;20219;-87
2022/10/27 09:32:47;;;;;;;6.43;2.40;;;;;;;-141.59;100.00;61776.25;5040478;28;20203;-87
2022/10/27 09:35:16;;;;;;;6.47;2.20;;;;;;;-141.59;100.00;61776.25;5044395;28;20218;-86
2022/10/27 09:37:45;;;;;;;7.20;2.60;;;;;;;-141.59;100.00;61776.25;5037057;28;20195;-85
2022/10/27 09:40:14;;;;;;;9.07;2.50;;;;;;;-141.59;100.00;61776.25;5050697;28;20202;-84
2022/10/27 09:42:42;;;;;;;7.17;2.93;;;;;;;-141.59;100.00;61776.25;5046874;28;20213;-86
2022/10/27 09:45:18;;;;;;;8.30;3.10;;;;;;;-141.59;100.00;61776.25;5057639;28;20199;-85
2022/10/27 09:47:49;;;;;;;6.93;2.70;;;;;;;-141.59;100.00;61776.25;5060707;28;20213;-86
2022/10/27 09:50:21;;;;;;;7.63;2.83;;;;;;;-141.59;100.00;61776.25;5048720;28;20208;-87
2022/10/27 09:52:50;;;;;;;9.40;2.30;;;;;;;-141.59;100.00;61776.25;5050324;28;20195;-85
2022/10/27 09:55:19;;;;;;;7.33;2.57;;;;;;;-141.59;100.00;61776.25;5052292;28;20218;-87
2022/10/27 09:57:47;;;;;;;8.00;2.77;;;;;;;-141.59;100.00;61776.25;5050887;28;20198;-83
2022/10/27 10:00:29;;;;;;;4.00;2.40;;;;;;;-141.59;100.00;61776.25;5039705;28;20230;-87
2022/10/27 10:03:03;;;;;;;6.37;2.80;;;;;;;-141.59;100.00;61776.25;5045705;28;20218;-87
2022/10/27 10:05:34;;;;;;;6.33;3.17;;;;;;;-141.59;100.00;61776.25;5044930;28;20203;-85
2022/10/27 10:08:23;;;;;;;6.30;2.50;;;;;;;-141.59;100.00;61776.25;5045597;28;20213;-84
2022/10/27 10:10:55;;;;;;;7.40;2.33;;;;;;;-141.59;100.00;61776.25;5040926;28;20242;-84
2022/10/27 10:13:23;;;;;;;9.00;2.40;;;;;;;-141.59;100.00;61776.25;5046298;28;20257;-86
2022/10/27 10:16:06;;;;;;;6.17;2.67;;;;;;;-141.59;100.00;61776.25;5057318;28;20199;-86
2022/10/27 10:18:34;;;;;;;6.00;2.20;;;;;;;-141.59;100.00;61776.25;5043673;28;20198;-85
2022/10/27 10:21:03;;;;;;;4.80;2.40;;;;;;;-141.59;100.00;61776.25;5048851;28;20323;-84
2022/10/27 10:23:35;;;;;;;6.20;2.83;;;;;;;-141.59;100.00;61776.25;5051330;28;20201;-87
2022/10/27 10:26:05;;;;;;;5.07;2.13;;;;;;;-141.59;100.00;61776.25;5048344;28;20286;-85
2022/10/27 10:28:35;;;;;;;4.27;2.07;;;;;;;-141.59;100.00;61776.25;5039491;28;20199;-86
2022/10/27 10:31:07;;;;;;;6.33;2.30;;;;;;;-141.59;100.00;61776.25;5045565;28;20210;-85
2022/10/27 10:33:37;;;;;;;6.27;2.07;;;;;;;-141.59;100.00;61776.25;5046938;28;20246;-87
2022/10/27 10:36:19;;;;;;;4.13;2.20;;;;;;;-141.59;100.00;61776.25;5047137;28;20206;-86
2022/10/27 10:38:54;;;;;;;6.87;2.43;;;;;;;-141.59;100.00;61776.25;5048188;28;20197;-86
2022/10/27 10:41:21;;;;;;;5.43;2.20;;;;;;;-141.59;100.00;61776.25;5035344;28;20209;-84
2022/10/27 10:44:08;;;;;;;6.07;2.50;;;;;;;-141.59;100.00;61776.25;5040518;28;20217;-82
2022/10/27 10:46:39;;;;;;;9.13;2.20;;;;;;;-141.59;100.00;61776.25;5051832;28;20206;-86
2022/10/27 10:49:19;;;;;;;4.80;1.97;;;;;;;-141.59;100.00;61776.25;5061990;28;20229;-86
2022/10/27 10:51:52;;;;;;;7.33;2.20;;;;;;;-141.59;100.00;61776.25;5037417;28;20221;-87
2022/10/27 10:54:25;;;;;;;8.47;2.03;;;;;;;-141.59;100.00;61776.25;5037721;28;20215;-86
2022/10/27 10:56:54;;;;;;;11.02;2.22;;;;;;;-141.59;100.00;61776.25;5048778;28;20234;-86
2022/10/27 10:59:26;;;;;;;12.05;2.30;;;;;;;-141.59;100.00;61776.25;5039436;28;20267;-86
2022/10/27 11:01:56;;;;;;;5.53;2.28;;;;;;;-141.59;100.00;61776.25;5037713;28;20257;-87
2022/10/27 11:04:27;;;;;;;7.68;3.13;;;;;;;-141.59;100.00;61776.25;5035750;28;20241;-86
2022/10/27 11:07:03;;;;;;;5.95;2.05;;;;;;;-141.59;100.00;61776.25;5038252;28;20256;-85
2022/10/27 11:09:38;;;;;;;3.80;2.30;;;;;;;-141.59;100.00;61776.25;5040551;28;20215;-86
2022/10/27 11:12:16;;;;;;;3.38;1.88;;;;;;;-141.59;100.00;61776.25;5040896;28;20210;-87
2022/10/27 11:14:43;;;;;;;4.07;2.10;;;;;;;-141.59;100.00;61776.25;5043475;28;20229;-87
2022/10/27 11:17:11;;;;;;;4.78;2.00;;;;;;;-141.59;100.00;61776.25;5047246;28;20202;-85
2022/10/27 11:19:40;;;;;;;8.80;2.08;;;;;;;-141.59;100.00;61776.25;5037612;28;20234;-85